Etusivu
METAR-TAF:

METAR-TAF

Lentoasemat :

Kárpathoksen lentoasema

Kárpathos, Kreikka

Leveyspiiri: 35-24-51N, Pituuspiiri: 027-08-54E, korkeus merenpinnasta: 6 m

Tämänhetkinen sää

Tämä raportti tehtiin 27 minuuttia sitten, kello 08.20 UTC
Tuuli 27 kn lännestä
Lämpötila 29°C
Kosteus 66%
Ilmanpaine 1004 hPa
Näkyvyys 10 km tai enemmän
ei pilviä alle 1500 m:ssä eikä cumulonimbus-pilviä

METAR: LGKP 140820Z 28027KT CAVOK 29/22 Q1004

Aika: 11:47 (08:47 UTC)

Sääennuste

Tämä raportti tehtiin 3 tuntia ja 47 minuuttia sitten, kello 05.00 UTC
Ennuste voimassa 14. päivästä klo 06 UTC - 14. päivään klo 15 UTC
Tuuli 18 kn lännestä/luoteesta puuskistuen 28 kn:hen
Näkyvyys 10 km tai enemmän
Muutamia pilviä 1800 ft:n korkeudessa

TAF: LGKP 140500Z 1406/1415 29018G28KT 9999 FEW018

Säähavainnot ja -ennusteet yli 4000 lentoasemalta (METAR- ja TAF-raportit).

Käytössä olevat sääasemat on merkitty karttaan keltaisilla ja punaisilla pisteillä.

Aseta hiiri pisteen päälle nähdäksesi sääaseman nimen.

Klikkaa sitten nähdäksesi säähavainnot ja -ennusteet.

Kartan vaihtaminen: klikkaa mustalla rastilla varustettuja vihreitä pisteitä, niin voit zoomata sisään; viivalla varustettua vihreää pistettä, niin voit zoomata ulos tai vihreitä nuolia, niin pääset viereisille kartoille.


METAR-TAF: